Veribest, TX (76886)

9:10 PM CST on February 19, 2017 (GMT -0600)
ME3606 | | Change Station

Elev 1758 ft 31.54 °N, 100.24 °W | Updated 33 minutes ago

Rain
Rain
58.0 °F
Feels Like 58.0 °F
N
6.0
Wind Variable Wind from East
Gusts 9.0 mph

Today
High -- | Low -- °F
--% Chance of Precip.
Yesterday
High -- | Low -- °F
Precip. -- in
Pressure 29.88 in
Visibility 10.0 miles
Clouds Mostly Cloudy 7000 ft
Overcast 8500 ft
Dew Point 51 °F
Humidity 78%
Rainfall 0.12 in
Snow Depth Not available.
7:18 AM 6:31 PM
Last Quarter, 38% visible
METAR KSJT 200251Z 16006KT 10SM -RA BKN070 OVC085 14/10 A2991 RMK AO2 LTG DSNT NE RAB27 SLP117 P0000 60000 T01440100 53022 $
Pressure 29.88 in
Visibility 10.0 miles
Clouds Mostly Cloudy 7000 ft
Overcast 8500 ft
Dew Point 51 °F
Humidity 78%
Rainfall 0.12 in
Snow Depth Not available.
7:18 AM 6:31 PM
Last Quarter, 38% visible
METAR KSJT 200251Z 16006KT 10SM -RA BKN070 OVC085 14/10 A2991 RMK AO2 LTG DSNT NE RAB27 SLP117 P0000 60000 T01440100 53022 $

Get Your Daily Forecast Email!

Thanks for signing up!

Be on the lookout for a verification email in your inbox.

You'll start receiving the daily forecast at 8 AM.

×

10-Day Weather Forecast

Almanac

Astronomy

Feb. 19, 2017 Rise Set
Actual Time
Civil Twilight
Nautical Twilight
Astronomical Twilight
Moon
Length of Visible Light
Length of Day
Tomorrow will be .
, % of the Moon is Illuminated

Today's Extremes

State Highs State Lows

Community

WunderPhotos

Upload Photos

1,962,540 photos uploaded!

WunderBlog® & News

Nearby

Air Quality

  Air Quality AQ Index Pollutant
Not available.

Snow Depth

Station Depth Elevation

Earthquake Activity

City Distance Mag. Time & Date
Minimum magnitude displayed is 2.5.

Coastal Water Temperatures

Place Temperature

Stations

Nearby Weather Stations

Station Location Temp. Windchill Dew Point Humidity Wind Precip. Elev Updated Type
                   

Watches & Warnings

There are currently no watches in effect.